sensor_id;sensor_type;location;lat;lon;timestamp;P1;durP1;ratioP1;P2;durP2;ratioP2
72569;SDS011;60594;50.204;8.844;2023-08-08T00:01:58;5.80;;;2.17;;
72569;SDS011;60594;50.204;8.844;2023-08-08T00:04:24;4.55;;;1.77;;
72569;SDS011;60594;50.204;8.844;2023-08-08T00:06:51;3.42;;;1.42;;
72569;SDS011;60594;50.204;8.844;2023-08-08T00:09:17;3.55;;;1.98;;
72569;SDS011;60594;50.204;8.844;2023-08-08T00:11:44;7.13;;;1.80;;
72569;SDS011;60594;50.204;8.844;2023-08-08T00:14:10;3.90;;;1.85;;
72569;SDS011;60594;50.204;8.844;2023-08-08T00:16:37;4.15;;;1.90;;
72569;SDS011;60594;50.204;8.844;2023-08-08T00:19:03;3.80;;;1.90;;
72569;SDS011;60594;50.204;8.844;2023-08-08T00:21:30;4.05;;;1.70;;
72569;SDS011;60594;50.204;8.844;2023-08-08T00:23:56;3.30;;;1.77;;
72569;SDS011;60594;50.204;8.844;2023-08-08T00:26:23;3.97;;;1.95;;
72569;SDS011;60594;50.204;8.844;2023-08-08T00:28:49;4.18;;;1.92;;
72569;SDS011;60594;50.204;8.844;2023-08-08T00:31:18;3.45;;;2.00;;
72569;SDS011;60594;50.204;8.844;2023-08-08T00:33:45;4.07;;;1.70;;
72569;SDS011;60594;50.204;8.844;2023-08-08T00:36:12;3.88;;;1.95;;
72569;SDS011;60594;50.204;8.844;2023-08-08T00:38:38;3.30;;;1.70;;
72569;SDS011;60594;50.204;8.844;2023-08-08T00:41:05;3.70;;;1.90;;
72569;SDS011;60594;50.204;8.844;2023-08-08T00:43:32;3.28;;;1.88;;
72569;SDS011;60594;50.204;8.844;2023-08-08T00:45:59;2.97;;;1.83;;
72569;SDS011;60594;50.204;8.844;2023-08-08T00:48:25;3.70;;;1.92;;
72569;SDS011;60594;50.204;8.844;2023-08-08T00:50:53;4.05;;;1.98;;
72569;SDS011;60594;50.204;8.844;2023-08-08T00:53:20;3.97;;;2.00;;
72569;SDS011;60594;50.204;8.844;2023-08-08T00:55:48;3.92;;;2.00;;
72569;SDS011;60594;50.204;8.844;2023-08-08T00:58:17;4.53;;;1.80;;
72569;SDS011;60594;50.204;8.844;2023-08-08T01:00:43;4.07;;;2.08;;
72569;SDS011;60594;50.204;8.844;2023-08-08T01:03:10;4.20;;;2.08;;
72569;SDS011;60594;50.204;8.844;2023-08-08T01:08:48;3.75;;;1.90;;
72569;SDS011;60594;50.204;8.844;2023-08-08T01:11:27;4.68;;;2.13;;
72569;SDS011;60594;50.204;8.844;2023-08-08T01:13:58;4.90;;;1.67;;
72569;SDS011;60594;50.204;8.844;2023-08-08T01:16:26;3.15;;;1.90;;
72569;SDS011;60594;50.204;8.844;2023-08-08T01:18:56;4.60;;;1.52;;
72569;SDS011;60594;50.204;8.844;2023-08-08T01:21:24;3.22;;;1.80;;
72569;SDS011;60594;50.204;8.844;2023-08-08T01:23:56;3.88;;;2.28;;
72569;SDS011;60594;50.204;8.844;2023-08-08T01:26:26;3.78;;;2.60;;
72569;SDS011;60594;50.204;8.844;2023-08-08T01:28:53;5.57;;;2.13;;
72569;SDS011;60594;50.204;8.844;2023-08-08T01:31:20;4.45;;;1.50;;
72569;SDS011;60594;50.204;8.844;2023-08-08T01:33:47;4.07;;;2.25;;
72569;SDS011;60594;50.204;8.844;2023-08-08T01:36:18;4.32;;;2.13;;
72569;SDS011;60594;50.204;8.844;2023-08-08T01:38:51;4.13;;;2.63;;
72569;SDS011;60594;50.204;8.844;2023-08-08T01:41:20;4.15;;;2.17;;
72569;SDS011;60594;50.204;8.844;2023-08-08T01:43:47;4.95;;;2.00;;
72569;SDS011;60594;50.204;8.844;2023-08-08T01:46:15;3.88;;;1.98;;
72569;SDS011;60594;50.204;8.844;2023-08-08T01:48:44;6.55;;;2.03;;
72569;SDS011;60594;50.204;8.844;2023-08-08T01:51:13;5.00;;;2.55;;
72569;SDS011;60594;50.204;8.844;2023-08-08T01:53:39;3.25;;;1.60;;
72569;SDS011;60594;50.204;8.844;2023-08-08T01:56:06;4.15;;;2.05;;
72569;SDS011;60594;50.204;8.844;2023-08-08T01:58:32;3.70;;;2.20;;
72569;SDS011;60594;50.204;8.844;2023-08-08T02:00:59;4.13;;;1.90;;
72569;SDS011;60594;50.204;8.844;2023-08-08T02:03:27;4.55;;;2.50;;
72569;SDS011;60594;50.204;8.844;2023-08-08T02:05:54;3.85;;;2.28;;
72569;SDS011;60594;50.204;8.844;2023-08-08T02:08:20;4.95;;;1.80;;
72569;SDS011;60594;50.204;8.844;2023-08-08T02:10:47;3.95;;;2.25;;
72569;SDS011;60594;50.204;8.844;2023-08-08T02:13:13;4.07;;;2.40;;
72569;SDS011;60594;50.204;8.844;2023-08-08T02:15:40;3.78;;;2.30;;
72569;SDS011;60594;50.204;8.844;2023-08-08T02:18:06;4.57;;;2.40;;
72569;SDS011;60594;50.204;8.844;2023-08-08T02:20:35;4.30;;;2.30;;
72569;SDS011;60594;50.204;8.844;2023-08-08T02:23:01;3.80;;;2.47;;
72569;SDS011;60594;50.204;8.844;2023-08-08T02:25:28;4.63;;;2.47;;
72569;SDS011;60594;50.204;8.844;2023-08-08T02:27:59;4.65;;;2.45;;
72569;SDS011;60594;50.204;8.844;2023-08-08T02:30:26;5.43;;;2.38;;
72569;SDS011;60594;50.204;8.844;2023-08-08T02:32:52;4.75;;;2.90;;
72569;SDS011;60594;50.204;8.844;2023-08-08T02:35:19;5.30;;;2.42;;
72569;SDS011;60594;50.204;8.844;2023-08-08T02:37:45;4.10;;;2.47;;
72569;SDS011;60594;50.204;8.844;2023-08-08T02:40:12;4.60;;;2.40;;
72569;SDS011;60594;50.204;8.844;2023-08-08T02:45:52;4.65;;;2.30;;
72569;SDS011;60594;50.204;8.844;2023-08-08T02:48:18;3.95;;;2.60;;
72569;SDS011;60594;50.204;8.844;2023-08-08T02:50:47;4.30;;;2.50;;
72569;SDS011;60594;50.204;8.844;2023-08-08T02:53:13;5.53;;;2.78;;
72569;SDS011;60594;50.204;8.844;2023-08-08T02:55:44;4.50;;;2.50;;
72569;SDS011;60594;50.204;8.844;2023-08-08T02:58:11;4.57;;;2.50;;
72569;SDS011;60594;50.204;8.844;2023-08-08T03:00:38;4.68;;;2.50;;
72569;SDS011;60594;50.204;8.844;2023-08-08T03:03:08;4.07;;;2.88;;
72569;SDS011;60594;50.204;8.844;2023-08-08T03:05:35;4.95;;;2.78;;
72569;SDS011;60594;50.204;8.844;2023-08-08T03:08:02;5.43;;;2.97;;
72569;SDS011;60594;50.204;8.844;2023-08-08T03:10:29;4.72;;;2.78;;
72569;SDS011;60594;50.204;8.844;2023-08-08T03:12:56;5.53;;;2.85;;
72569;SDS011;60594;50.204;8.844;2023-08-08T03:15:23;5.03;;;2.70;;
72569;SDS011;60594;50.204;8.844;2023-08-08T03:17:49;4.93;;;2.88;;
72569;SDS011;60594;50.204;8.844;2023-08-08T03:20:16;5.10;;;2.45;;
72569;SDS011;60594;50.204;8.844;2023-08-08T03:22:43;5.50;;;3.03;;
72569;SDS011;60594;50.204;8.844;2023-08-08T03:25:10;5.20;;;3.10;;
72569;SDS011;60594;50.204;8.844;2023-08-08T03:27:37;5.03;;;2.85;;
72569;SDS011;60594;50.204;8.844;2023-08-08T03:30:04;6.65;;;2.65;;
72569;SDS011;60594;50.204;8.844;2023-08-08T03:32:37;5.30;;;3.20;;
72569;SDS011;60594;50.204;8.844;2023-08-08T03:35:04;6.00;;;3.10;;
72569;SDS011;60594;50.204;8.844;2023-08-08T03:37:32;4.93;;;2.97;;
72569;SDS011;60594;50.204;8.844;2023-08-08T03:39:59;4.82;;;2.80;;
72569;SDS011;60594;50.204;8.844;2023-08-08T03:42:25;4.70;;;2.80;;
72569;SDS011;60594;50.204;8.844;2023-08-08T03:44:52;6.18;;;2.53;;
72569;SDS011;60594;50.204;8.844;2023-08-08T03:47:19;4.68;;;2.92;;
72569;SDS011;60594;50.204;8.844;2023-08-08T03:49:49;4.95;;;3.03;;
72569;SDS011;60594;50.204;8.844;2023-08-08T03:52:17;6.72;;;3.33;;
72569;SDS011;60594;50.204;8.844;2023-08-08T03:54:44;4.80;;;2.95;;
72569;SDS011;60594;50.204;8.844;2023-08-08T03:57:11;4.60;;;2.80;;
72569;SDS011;60594;50.204;8.844;2023-08-08T03:59:38;6.00;;;3.10;;
72569;SDS011;60594;50.204;8.844;2023-08-08T04:02:05;5.65;;;2.60;;
72569;SDS011;60594;50.204;8.844;2023-08-08T04:04:32;5.38;;;2.83;;
72569;SDS011;60594;50.204;8.844;2023-08-08T04:06:59;4.68;;;2.30;;
72569;SDS011;60594;50.204;8.844;2023-08-08T04:09:25;6.20;;;2.78;;
72569;SDS011;60594;50.204;8.844;2023-08-08T04:11:52;5.35;;;2.97;;
72569;SDS011;60594;50.204;8.844;2023-08-08T04:14:20;4.18;;;2.38;;
72569;SDS011;60594;50.204;8.844;2023-08-08T04:16:46;6.18;;;2.90;;
72569;SDS011;60594;50.204;8.844;2023-08-08T04:21:59;3.88;;;2.70;;
72569;SDS011;60594;50.204;8.844;2023-08-08T04:24:26;5.10;;;2.80;;
72569;SDS011;60594;50.204;8.844;2023-08-08T04:26:53;4.22;;;2.58;;
72569;SDS011;60594;50.204;8.844;2023-08-08T04:29:20;4.15;;;2.65;;
72569;SDS011;60594;50.204;8.844;2023-08-08T04:31:46;5.18;;;2.63;;
72569;SDS011;60594;50.204;8.844;2023-08-08T04:34:14;3.88;;;2.42;;
72569;SDS011;60594;50.204;8.844;2023-08-08T04:36:41;4.68;;;2.70;;
72569;SDS011;60594;50.204;8.844;2023-08-08T04:39:08;4.95;;;2.85;;
72569;SDS011;60594;50.204;8.844;2023-08-08T04:41:34;5.63;;;2.83;;
72569;SDS011;60594;50.204;8.844;2023-08-08T04:44:01;6.43;;;2.88;;
72569;SDS011;60594;50.204;8.844;2023-08-08T04:46:28;3.95;;;2.28;;
72569;SDS011;60594;50.204;8.844;2023-08-08T04:49:14;5.40;;;3.03;;
72569;SDS011;60594;50.204;8.844;2023-08-08T04:51:41;4.85;;;2.75;;
72569;SDS011;60594;50.204;8.844;2023-08-08T04:54:07;5.00;;;2.83;;
72569;SDS011;60594;50.204;8.844;2023-08-08T04:56:34;4.53;;;2.92;;
72569;SDS011;60594;50.204;8.844;2023-08-08T04:59:01;7.40;;;2.92;;
72569;SDS011;60594;50.204;8.844;2023-08-08T05:01:28;4.78;;;2.03;;
72569;SDS011;60594;50.204;8.844;2023-08-08T05:03:54;4.40;;;2.63;;
72569;SDS011;60594;50.204;8.844;2023-08-08T05:06:21;4.18;;;2.33;;
72569;SDS011;60594;50.204;8.844;2023-08-08T05:08:49;4.13;;;2.58;;
72569;SDS011;60594;50.204;8.844;2023-08-08T05:11:18;6.40;;;2.63;;
72569;SDS011;60594;50.204;8.844;2023-08-08T05:13:45;4.22;;;2.42;;
72569;SDS011;60594;50.204;8.844;2023-08-08T05:16:12;4.82;;;2.63;;
72569;SDS011;60594;50.204;8.844;2023-08-08T05:18:39;4.20;;;1.83;;
72569;SDS011;60594;50.204;8.844;2023-08-08T05:21:06;4.60;;;2.50;;
72569;SDS011;60594;50.204;8.844;2023-08-08T05:23:33;5.00;;;2.53;;
72569;SDS011;60594;50.204;8.844;2023-08-08T05:26:00;4.30;;;2.80;;
72569;SDS011;60594;50.204;8.844;2023-08-08T05:28:26;5.20;;;2.30;;
72569;SDS011;60594;50.204;8.844;2023-08-08T05:30:53;4.82;;;2.60;;
72569;SDS011;60594;50.204;8.844;2023-08-08T05:33:23;6.75;;;2.70;;
72569;SDS011;60594;50.204;8.844;2023-08-08T05:35:49;5.82;;;3.05;;
72569;SDS011;60594;50.204;8.844;2023-08-08T05:38:16;5.03;;;2.65;;
72569;SDS011;60594;50.204;8.844;2023-08-08T05:40:42;5.45;;;2.67;;
72569;SDS011;60594;50.204;8.844;2023-08-08T05:43:09;5.15;;;2.78;;
72569;SDS011;60594;50.204;8.844;2023-08-08T05:45:36;4.50;;;1.98;;
72569;SDS011;60594;50.204;8.844;2023-08-08T05:48:04;4.05;;;2.70;;
72569;SDS011;60594;50.204;8.844;2023-08-08T05:50:31;4.68;;;2.50;;
72569;SDS011;60594;50.204;8.844;2023-08-08T05:52:59;4.72;;;1.90;;
72569;SDS011;60594;50.204;8.844;2023-08-08T05:55:25;5.65;;;2.72;;
72569;SDS011;60594;50.204;8.844;2023-08-08T05:57:52;5.68;;;2.97;;
72569;SDS011;60594;50.204;8.844;2023-08-08T06:00:18;4.35;;;2.58;;
72569;SDS011;60594;50.204;8.844;2023-08-08T06:02:46;3.95;;;2.55;;
72569;SDS011;60594;50.204;8.844;2023-08-08T06:05:13;7.32;;;2.42;;
72569;SDS011;60594;50.204;8.844;2023-08-08T06:07:40;4.55;;;2.60;;
72569;SDS011;60594;50.204;8.844;2023-08-08T06:10:07;5.53;;;2.70;;
72569;SDS011;60594;50.204;8.844;2023-08-08T06:12:35;4.47;;;2.45;;
72569;SDS011;60594;50.204;8.844;2023-08-08T06:15:02;3.72;;;2.20;;
72569;SDS011;60594;50.204;8.844;2023-08-08T06:17:31;7.10;;;2.63;;
72569;SDS011;60594;50.204;8.844;2023-08-08T06:19:58;4.65;;;2.38;;
72569;SDS011;60594;50.204;8.844;2023-08-08T06:22:25;4.60;;;2.00;;
72569;SDS011;60594;50.204;8.844;2023-08-08T06:24:51;4.00;;;2.22;;
72569;SDS011;60594;50.204;8.844;2023-08-08T06:27:18;3.85;;;2.10;;
72569;SDS011;60594;50.204;8.844;2023-08-08T06:29:44;4.90;;;1.92;;
72569;SDS011;60594;50.204;8.844;2023-08-08T06:32:11;4.00;;;2.33;;
72569;SDS011;60594;50.204;8.844;2023-08-08T06:34:38;3.92;;;2.00;;
72569;SDS011;60594;50.204;8.844;2023-08-08T06:37:04;3.78;;;2.00;;
72569;SDS011;60594;50.204;8.844;2023-08-08T06:39:31;4.13;;;2.13;;
72569;SDS011;60594;50.204;8.844;2023-08-08T06:42:17;3.90;;;2.20;;
72569;SDS011;60594;50.204;8.844;2023-08-08T06:45:12;4.35;;;2.20;;
72569;SDS011;60594;50.204;8.844;2023-08-08T06:47:40;4.28;;;2.10;;
72569;SDS011;60594;50.204;8.844;2023-08-08T06:50:06;4.22;;;2.05;;
72569;SDS011;60594;50.204;8.844;2023-08-08T06:52:34;3.83;;;2.10;;
72569;SDS011;60594;50.204;8.844;2023-08-08T06:55:00;4.20;;;2.42;;
72569;SDS011;60594;50.204;8.844;2023-08-08T06:57:31;4.68;;;2.08;;
72569;SDS011;60594;50.204;8.844;2023-08-08T06:59:59;4.43;;;2.00;;
72569;SDS011;60594;50.204;8.844;2023-08-08T07:02:25;4.05;;;2.00;;
72569;SDS011;60594;50.204;8.844;2023-08-08T07:04:52;5.32;;;2.25;;
72569;SDS011;60594;50.204;8.844;2023-08-08T07:07:20;6.22;;;1.95;;
72569;SDS011;60594;50.204;8.844;2023-08-08T07:09:48;5.25;;;1.80;;
72569;SDS011;60594;50.204;8.844;2023-08-08T07:12:14;4.82;;;1.73;;
72569;SDS011;60594;50.204;8.844;2023-08-08T07:14:41;5.00;;;1.88;;
72569;SDS011;60594;50.204;8.844;2023-08-08T07:17:08;4.07;;;2.00;;
72569;SDS011;60594;50.204;8.844;2023-08-08T07:19:38;4.50;;;2.05;;
72569;SDS011;60594;50.204;8.844;2023-08-08T07:22:05;4.10;;;2.08;;
72569;SDS011;60594;50.204;8.844;2023-08-08T07:24:32;3.42;;;2.08;;
72569;SDS011;60594;50.204;8.844;2023-08-08T07:26:58;4.30;;;2.05;;
72569;SDS011;60594;50.204;8.844;2023-08-08T07:29:26;3.15;;;1.45;;
72569;SDS011;60594;50.204;8.844;2023-08-08T07:31:53;5.32;;;1.92;;
72569;SDS011;60594;50.204;8.844;2023-08-08T07:34:22;4.90;;;2.10;;
72569;SDS011;60594;50.204;8.844;2023-08-08T07:36:49;3.72;;;1.92;;
72569;SDS011;60594;50.204;8.844;2023-08-08T07:39:16;3.38;;;1.95;;
72569;SDS011;60594;50.204;8.844;2023-08-08T07:41:42;5.43;;;2.13;;
72569;SDS011;60594;50.204;8.844;2023-08-08T07:44:09;3.60;;;1.50;;
72569;SDS011;60594;50.204;8.844;2023-08-08T07:46:36;3.88;;;1.63;;
72569;SDS011;60594;50.204;8.844;2023-08-08T07:49:03;3.60;;;1.73;;
72569;SDS011;60594;50.204;8.844;2023-08-08T07:51:31;3.55;;;1.67;;
72569;SDS011;60594;50.204;8.844;2023-08-08T07:53:58;3.80;;;1.60;;
72569;SDS011;60594;50.204;8.844;2023-08-08T07:56:25;4.03;;;1.92;;
72569;SDS011;60594;50.204;8.844;2023-08-08T07:58:52;3.47;;;1.60;;
72569;SDS011;60594;50.204;8.844;2023-08-08T08:03:46;3.70;;;1.50;;
72569;SDS011;60594;50.204;8.844;2023-08-08T08:06:14;3.63;;;1.60;;
72569;SDS011;60594;50.204;8.844;2023-08-08T08:08:43;3.55;;;1.50;;
72569;SDS011;60594;50.204;8.844;2023-08-08T08:11:11;3.90;;;1.70;;
72569;SDS011;60594;50.204;8.844;2023-08-08T08:13:43;5.50;;;1.80;;
72569;SDS011;60594;50.204;8.844;2023-08-08T08:16:09;3.50;;;1.58;;
72569;SDS011;60594;50.204;8.844;2023-08-08T08:18:36;3.10;;;1.50;;
72569;SDS011;60594;50.204;8.844;2023-08-08T08:21:03;3.22;;;1.40;;
72569;SDS011;60594;50.204;8.844;2023-08-08T08:23:31;3.08;;;1.33;;
72569;SDS011;60594;50.204;8.844;2023-08-08T08:25:58;3.13;;;1.33;;
72569;SDS011;60594;50.204;8.844;2023-08-08T08:28:26;4.07;;;1.45;;
72569;SDS011;60594;50.204;8.844;2023-08-08T08:30:54;3.30;;;1.70;;
72569;SDS011;60594;50.204;8.844;2023-08-08T08:33:21;5.00;;;1.65;;
72569;SDS011;60594;50.204;8.844;2023-08-08T08:35:48;6.40;;;1.90;;
72569;SDS011;60594;50.204;8.844;2023-08-08T08:38:15;3.25;;;1.38;;
72569;SDS011;60594;50.204;8.844;2023-08-08T08:40:42;3.65;;;1.55;;
72569;SDS011;60594;50.204;8.844;2023-08-08T08:43:13;4.32;;;1.20;;
72569;SDS011;60594;50.204;8.844;2023-08-08T08:45:40;3.67;;;1.65;;
72569;SDS011;60594;50.204;8.844;2023-08-08T08:48:11;6.97;;;1.98;;
72569;SDS011;60594;50.204;8.844;2023-08-08T08:50:40;2.88;;;1.50;;
72569;SDS011;60594;50.204;8.844;2023-08-08T08:53:09;3.40;;;1.60;;
72569;SDS011;60594;50.204;8.844;2023-08-08T08:55:36;5.13;;;1.42;;
72569;SDS011;60594;50.204;8.844;2023-08-08T08:58:03;3.53;;;1.35;;
72569;SDS011;60594;50.204;8.844;2023-08-08T09:00:30;2.92;;;1.48;;
72569;SDS011;60594;50.204;8.844;2023-08-08T09:02:59;3.50;;;1.70;;
72569;SDS011;60594;50.204;8.844;2023-08-08T09:05:26;3.90;;;1.60;;
72569;SDS011;60594;50.204;8.844;2023-08-08T09:07:53;3.72;;;1.40;;
72569;SDS011;60594;50.204;8.844;2023-08-08T09:10:19;3.45;;;1.48;;
72569;SDS011;60594;50.204;8.844;2023-08-08T09:12:49;4.53;;;1.85;;
72569;SDS011;60594;50.204;8.844;2023-08-08T09:15:15;2.95;;;1.60;;
72569;SDS011;60594;50.204;8.844;2023-08-08T09:17:43;3.45;;;1.33;;
72569;SDS011;60594;50.204;8.844;2023-08-08T09:20:12;4.43;;;1.75;;
72569;SDS011;60594;50.204;8.844;2023-08-08T09:22:39;4.53;;;1.50;;
72569;SDS011;60594;50.204;8.844;2023-08-08T09:25:06;3.10;;;1.20;;
72569;SDS011;60594;50.204;8.844;2023-08-08T09:27:35;3.53;;;1.73;;
72569;SDS011;60594;50.204;8.844;2023-08-08T09:30:02;4.00;;;1.75;;
72569;SDS011;60594;50.204;8.844;2023-08-08T09:32:31;3.95;;;1.55;;
72569;SDS011;60594;50.204;8.844;2023-08-08T09:34:58;5.28;;;1.70;;
72569;SDS011;60594;50.204;8.844;2023-08-08T09:37:27;3.47;;;1.50;;
72569;SDS011;60594;50.204;8.844;2023-08-08T09:40:01;4.10;;;1.40;;
72569;SDS011;60594;50.204;8.844;2023-08-08T09:42:31;3.58;;;1.35;;
72569;SDS011;60594;50.204;8.844;2023-08-08T09:44:58;4.07;;;1.67;;
72569;SDS011;60594;50.204;8.844;2023-08-08T09:47:26;3.95;;;2.00;;
72569;SDS011;60594;50.204;8.844;2023-08-08T09:50:02;4.70;;;1.80;;
72569;SDS011;60594;50.204;8.844;2023-08-08T09:52:31;3.50;;;1.50;;
72569;SDS011;60594;50.204;8.844;2023-08-08T09:57:26;3.78;;;1.75;;
72569;SDS011;60594;50.204;8.844;2023-08-08T09:59:53;4.55;;;1.70;;
72569;SDS011;60594;50.204;8.844;2023-08-08T10:02:20;3.72;;;1.67;;
72569;SDS011;60594;50.204;8.844;2023-08-08T10:04:47;3.53;;;1.67;;
72569;SDS011;60594;50.204;8.844;2023-08-08T10:07:14;3.10;;;1.45;;
72569;SDS011;60594;50.204;8.844;2023-08-08T10:09:41;3.25;;;1.40;;
72569;SDS011;60594;50.204;8.844;2023-08-08T10:12:09;3.88;;;1.67;;
72569;SDS011;60594;50.204;8.844;2023-08-08T10:14:37;4.15;;;1.67;;
72569;SDS011;60594;50.204;8.844;2023-08-08T10:17:08;3.00;;;1.00;;
72569;SDS011;60594;50.204;8.844;2023-08-08T10:19:39;3.42;;;1.95;;
72569;SDS011;60594;50.204;8.844;2023-08-08T10:22:06;3.53;;;1.45;;
72569;SDS011;60594;50.204;8.844;2023-08-08T10:24:34;3.40;;;1.95;;
72569;SDS011;60594;50.204;8.844;2023-08-08T10:27:02;3.53;;;1.65;;
72569;SDS011;60594;50.204;8.844;2023-08-08T10:29:31;3.78;;;1.75;;
72569;SDS011;60594;50.204;8.844;2023-08-08T10:32:03;4.13;;;1.88;;
72569;SDS011;60594;50.204;8.844;2023-08-08T10:37:10;2.83;;;1.13;;
72569;SDS011;60594;50.204;8.844;2023-08-08T10:39:59;4.47;;;1.52;;
72569;SDS011;60594;50.204;8.844;2023-08-08T10:42:28;3.08;;;1.58;;
72569;SDS011;60594;50.204;8.844;2023-08-08T10:44:57;4.03;;;1.50;;
72569;SDS011;60594;50.204;8.844;2023-08-08T10:47:33;3.78;;;1.52;;
72569;SDS011;60594;50.204;8.844;2023-08-08T10:52:31;3.85;;;1.48;;
72569;SDS011;60594;50.204;8.844;2023-08-08T10:55:01;4.03;;;1.45;;
72569;SDS011;60594;50.204;8.844;2023-08-08T10:57:29;3.47;;;1.20;;
72569;SDS011;60594;50.204;8.844;2023-08-08T11:00:15;3.60;;;1.50;;
72569;SDS011;60594;50.204;8.844;2023-08-08T11:02:43;3.80;;;1.50;;
72569;SDS011;60594;50.204;8.844;2023-08-08T11:07:37;3.58;;;1.83;;
72569;SDS011;60594;50.204;8.844;2023-08-08T11:10:04;3.80;;;1.60;;
72569;SDS011;60594;50.204;8.844;2023-08-08T11:12:32;4.95;;;1.75;;
72569;SDS011;60594;50.204;8.844;2023-08-08T11:14:59;5.28;;;1.20;;
72569;SDS011;60594;50.204;8.844;2023-08-08T11:17:26;3.05;;;1.40;;
72569;SDS011;60594;50.204;8.844;2023-08-08T11:19:53;4.20;;;1.52;;
72569;SDS011;60594;50.204;8.844;2023-08-08T11:22:20;3.55;;;1.63;;
72569;SDS011;60594;50.204;8.844;2023-08-08T11:24:49;3.58;;;1.50;;
72569;SDS011;60594;50.204;8.844;2023-08-08T11:27:17;3.92;;;1.55;;
72569;SDS011;60594;50.204;8.844;2023-08-08T11:29:50;4.55;;;1.75;;
72569;SDS011;60594;50.204;8.844;2023-08-08T11:32:17;4.25;;;1.63;;
72569;SDS011;60594;50.204;8.844;2023-08-08T11:34:43;3.83;;;1.63;;
72569;SDS011;60594;50.204;8.844;2023-08-08T11:37:12;3.72;;;1.55;;
72569;SDS011;60594;50.204;8.844;2023-08-08T11:39:41;4.97;;;2.33;;
72569;SDS011;60594;50.204;8.844;2023-08-08T11:42:08;4.20;;;2.00;;
72569;SDS011;60594;50.204;8.844;2023-08-08T11:44:35;3.20;;;1.40;;
72569;SDS011;60594;50.204;8.844;2023-08-08T11:47:03;4.47;;;1.60;;
72569;SDS011;60594;50.204;8.844;2023-08-08T11:49:30;6.35;;;1.65;;
72569;SDS011;60594;50.204;8.844;2023-08-08T11:51:57;3.38;;;1.67;;
72569;SDS011;60594;50.204;8.844;2023-08-08T11:54:28;2.65;;;1.40;;
72569;SDS011;60594;50.204;8.844;2023-08-08T11:56:59;5.22;;;1.13;;
72569;SDS011;60594;50.204;8.844;2023-08-08T11:59:27;3.60;;;1.55;;
72569;SDS011;60594;50.204;8.844;2023-08-08T12:01:55;3.22;;;1.40;;
72569;SDS011;60594;50.204;8.844;2023-08-08T12:04:21;3.72;;;1.50;;
72569;SDS011;60594;50.204;8.844;2023-08-08T12:06:49;3.35;;;1.50;;
72569;SDS011;60594;50.204;8.844;2023-08-08T12:09:15;3.33;;;1.48;;
72569;SDS011;60594;50.204;8.844;2023-08-08T12:11:43;3.38;;;1.50;;
72569;SDS011;60594;50.204;8.844;2023-08-08T12:14:12;4.72;;;1.90;;
72569;SDS011;60594;50.204;8.844;2023-08-08T12:16:41;3.80;;;1.65;;
72569;SDS011;60594;50.204;8.844;2023-08-08T12:19:09;4.35;;;1.70;;
72569;SDS011;60594;50.204;8.844;2023-08-08T12:21:37;3.83;;;1.63;;
72569;SDS011;60594;50.204;8.844;2023-08-08T12:24:04;3.33;;;1.40;;
72569;SDS011;60594;50.204;8.844;2023-08-08T12:26:31;4.38;;;1.65;;
72569;SDS011;60594;50.204;8.844;2023-08-08T12:28:58;3.17;;;1.85;;
72569;SDS011;60594;50.204;8.844;2023-08-08T12:31:24;3.88;;;1.90;;
72569;SDS011;60594;50.204;8.844;2023-08-08T12:33:51;2.70;;;1.38;;
72569;SDS011;60594;50.204;8.844;2023-08-08T12:36:18;3.95;;;1.45;;
72569;SDS011;60594;50.204;8.844;2023-08-08T12:38:44;3.65;;;1.60;;
72569;SDS011;60594;50.204;8.844;2023-08-08T12:41:13;3.90;;;1.63;;
72569;SDS011;60594;50.204;8.844;2023-08-08T12:43:40;3.10;;;1.20;;
72569;SDS011;60594;50.204;8.844;2023-08-08T12:46:07;3.00;;;1.58;;
72569;SDS011;60594;50.204;8.844;2023-08-08T12:48:34;2.80;;;1.55;;
72569;SDS011;60594;50.204;8.844;2023-08-08T12:51:01;4.05;;;1.70;;
72569;SDS011;60594;50.204;8.844;2023-08-08T12:53:27;4.65;;;1.77;;
72569;SDS011;60594;50.204;8.844;2023-08-08T12:55:54;4.40;;;1.70;;
72569;SDS011;60594;50.204;8.844;2023-08-08T12:58:21;3.10;;;1.60;;
72569;SDS011;60594;50.204;8.844;2023-08-08T13:00:48;3.33;;;1.50;;
72569;SDS011;60594;50.204;8.844;2023-08-08T13:03:14;3.10;;;1.30;;
72569;SDS011;60594;50.204;8.844;2023-08-08T13:05:41;4.10;;;1.70;;
72569;SDS011;60594;50.204;8.844;2023-08-08T13:08:08;4.57;;;1.70;;
72569;SDS011;60594;50.204;8.844;2023-08-08T13:10:35;5.57;;;1.52;;
72569;SDS011;60594;50.204;8.844;2023-08-08T13:13:02;3.25;;;1.50;;
72569;SDS011;60594;50.204;8.844;2023-08-08T13:15:29;4.38;;;1.60;;
72569;SDS011;60594;50.204;8.844;2023-08-08T13:17:56;3.45;;;1.52;;
72569;SDS011;60594;50.204;8.844;2023-08-08T13:20:26;3.30;;;1.50;;
72569;SDS011;60594;50.204;8.844;2023-08-08T13:22:52;4.18;;;1.63;;
72569;SDS011;60594;50.204;8.844;2023-08-08T13:25:20;3.47;;;1.50;;
72569;SDS011;60594;50.204;8.844;2023-08-08T13:27:47;3.35;;;1.70;;
72569;SDS011;60594;50.204;8.844;2023-08-08T13:30:14;3.97;;;1.70;;
72569;SDS011;60594;50.204;8.844;2023-08-08T13:32:44;2.95;;;1.40;;
72569;SDS011;60594;50.204;8.844;2023-08-08T13:35:11;3.25;;;1.50;;
72569;SDS011;60594;50.204;8.844;2023-08-08T13:37:37;3.63;;;1.42;;
72569;SDS011;60594;50.204;8.844;2023-08-08T13:40:04;4.25;;;1.48;;
72569;SDS011;60594;50.204;8.844;2023-08-08T13:42:31;4.60;;;1.70;;
72569;SDS011;60594;50.204;8.844;2023-08-08T13:44:58;4.30;;;1.40;;
72569;SDS011;60594;50.204;8.844;2023-08-08T13:47:26;3.47;;;1.70;;
72569;SDS011;60594;50.204;8.844;2023-08-08T13:49:53;3.03;;;1.35;;
72569;SDS011;60594;50.204;8.844;2023-08-08T13:52:19;3.85;;;1.40;;
72569;SDS011;60594;50.204;8.844;2023-08-08T13:54:46;3.28;;;1.30;;
72569;SDS011;60594;50.204;8.844;2023-08-08T13:57:12;3.35;;;1.38;;
72569;SDS011;60594;50.204;8.844;2023-08-08T13:59:39;3.13;;;1.42;;
72569;SDS011;60594;50.204;8.844;2023-08-08T14:02:06;3.60;;;1.60;;
72569;SDS011;60594;50.204;8.844;2023-08-08T14:04:32;2.70;;;1.40;;
72569;SDS011;60594;50.204;8.844;2023-08-08T14:06:59;3.40;;;1.50;;
72569;SDS011;60594;50.204;8.844;2023-08-08T14:09:26;2.90;;;1.35;;
72569;SDS011;60594;50.204;8.844;2023-08-08T14:11:53;2.90;;;1.40;;
72569;SDS011;60594;50.204;8.844;2023-08-08T14:14:20;4.85;;;1.60;;
72569;SDS011;60594;50.204;8.844;2023-08-08T14:16:47;4.05;;;1.10;;
72569;SDS011;60594;50.204;8.844;2023-08-08T14:19:13;3.60;;;1.42;;
72569;SDS011;60594;50.204;8.844;2023-08-08T14:21:40;3.20;;;1.50;;
72569;SDS011;60594;50.204;8.844;2023-08-08T14:24:06;4.05;;;1.67;;
72569;SDS011;60594;50.204;8.844;2023-08-08T14:26:36;5.22;;;1.80;;
72569;SDS011;60594;50.204;8.844;2023-08-08T14:29:03;4.93;;;1.48;;
72569;SDS011;60594;50.204;8.844;2023-08-08T14:31:30;3.47;;;1.60;;
72569;SDS011;60594;50.204;8.844;2023-08-08T14:33:59;3.30;;;1.40;;
72569;SDS011;60594;50.204;8.844;2023-08-08T14:36:25;2.50;;;1.30;;
72569;SDS011;60594;50.204;8.844;2023-08-08T14:38:52;3.00;;;1.60;;
72569;SDS011;60594;50.204;8.844;2023-08-08T14:41:19;3.70;;;1.13;;
72569;SDS011;60594;50.204;8.844;2023-08-08T14:43:47;2.85;;;1.35;;
72569;SDS011;60594;50.204;8.844;2023-08-08T14:46:13;5.05;;;1.50;;
72569;SDS011;60594;50.204;8.844;2023-08-08T14:48:40;3.17;;;1.17;;
72569;SDS011;60594;50.204;8.844;2023-08-08T14:51:07;4.15;;;1.98;;
72569;SDS011;60594;50.204;8.844;2023-08-08T14:53:34;3.60;;;1.40;;
72569;SDS011;60594;50.204;8.844;2023-08-08T14:56:00;4.65;;;1.58;;
72569;SDS011;60594;50.204;8.844;2023-08-08T14:58:27;3.70;;;1.55;;
72569;SDS011;60594;50.204;8.844;2023-08-08T15:00:55;2.97;;;1.52;;
72569;SDS011;60594;50.204;8.844;2023-08-08T15:03:21;3.83;;;1.50;;
72569;SDS011;60594;50.204;8.844;2023-08-08T15:05:48;3.17;;;1.10;;
72569;SDS011;60594;50.204;8.844;2023-08-08T15:08:15;3.15;;;1.45;;
72569;SDS011;60594;50.204;8.844;2023-08-08T15:10:42;2.67;;;1.10;;
72569;SDS011;60594;50.204;8.844;2023-08-08T15:13:09;3.75;;;1.40;;